Time;durP1;ratioP1;P1;durP2;ratioP2;P2;SDS_P1;SDS_P2;PMS_P1;PMS_P2;Temp;Humidity;BMP_temperature;BMP_pressure;BME280_temperature;BME280_humidity;BME280_pressure;Samples;Min_cycle;Max_cycle;Signal;HPM_P1;HPM_P2
2022/10/27 03:41:01;;;;;;;25.92;13.55;;;;;;;11.60;100.00;101470.34;6059052;28;20072;-84
2022/10/27 03:44:04;;;;;;;27.67;14.93;;;;;;;11.53;100.00;101465.59;5232300;34;34009;-84
2022/10/27 03:47:06;;;;;;;27.95;13.60;;;;;;;11.53;100.00;101468.28;5226638;34;33524;-84
2022/10/27 03:50:09;;;;;;;26.12;13.95;;;;;;;11.57;100.00;101472.34;5222265;34;34960;-84
2022/10/27 03:53:12;;;;;;;27.87;14.20;;;;;;;11.63;100.00;101473.56;5221504;34;34145;-84
2022/10/27 03:56:15;;;;;;;26.83;13.65;;;;;;;11.61;100.00;101475.56;5194765;34;33082;-84
2022/10/27 03:59:18;;;;;;;25.85;12.75;;;;;;;11.63;100.00;101478.13;5206598;34;33689;-84
2022/10/27 04:02:20;;;;;;;25.27;13.30;;;;;;;11.61;100.00;101469.31;5206444;34;33945;-84
2022/10/27 04:05:24;;;;;;;24.20;12.45;;;;;;;11.64;100.00;101463.63;5204329;34;34011;-84
2022/10/27 04:08:26;;;;;;;25.77;13.95;;;;;;;11.64;100.00;101477.09;5203532;34;33591;-84
2022/10/27 04:11:29;;;;;;;26.48;13.60;;;;;;;11.68;100.00;101476.66;5205558;34;34548;-84
2022/10/27 04:14:32;;;;;;;23.75;13.68;;;;;;;11.70;100.00;101476.47;5213624;34;34115;-84
2022/10/27 04:17:34;;;;;;;22.90;12.57;;;;;;;11.64;100.00;101477.09;5203244;34;33821;-84
2022/10/27 04:20:37;;;;;;;23.25;13.57;;;;;;;11.61;100.00;101478.25;5203778;34;34254;-84
2022/10/27 04:23:40;;;;;;;23.98;13.48;;;;;;;11.62;100.00;101485.38;5202902;34;32141;-84
2022/10/27 04:26:42;;;;;;;20.77;11.85;;;;;;;11.67;100.00;101482.19;5202768;34;32439;-84
2022/10/27 04:29:45;;;;;;;24.85;12.40;;;;;;;11.73;100.00;101485.13;5203748;34;34616;-84
2022/10/27 04:32:52;;;;;;;22.37;11.75;;;;;;;11.76;100.00;101492.06;5205199;34;34273;-84
2022/10/27 04:35:55;;;;;;;25.00;13.00;;;;;;;11.78;100.00;101503.50;5203508;34;34703;-84
2022/10/27 04:39:01;;;;;;;21.67;12.32;;;;;;;11.72;100.00;101496.06;5215590;34;32195;-83
2022/10/27 04:42:04;;;;;;;25.62;13.62;;;;;;;11.72;100.00;101491.50;5204849;34;34605;-84
2022/10/27 04:45:06;;;;;;;23.15;12.73;;;;;;;11.71;100.00;101497.06;5220951;34;34196;-84
2022/10/27 04:48:09;;;;;;;24.02;13.25;;;;;;;11.69;100.00;101496.38;5219711;34;32010;-84
2022/10/27 04:51:12;;;;;;;24.12;13.35;;;;;;;11.66;100.00;101507.47;5221163;34;34123;-84
2022/10/27 04:54:14;;;;;;;26.98;13.55;;;;;;;11.65;100.00;101505.78;5221215;34;34425;-84
2022/10/27 04:57:17;;;;;;;24.12;13.07;;;;;;;11.64;100.00;101509.47;5220725;34;33655;-84
2022/10/27 05:00:22;;;;;;;24.27;12.32;;;;;;;11.72;100.00;101510.38;5220936;34;33448;-84
2022/10/27 05:03:24;;;;;;;21.58;12.70;;;;;;;11.68;100.00;101513.56;5220807;34;34433;-84
2022/10/27 05:06:27;;;;;;;26.27;13.57;;;;;;;11.71;100.00;101510.56;5219482;34;32676;-84
2022/10/27 05:09:30;;;;;;;29.37;13.95;;;;;;;11.64;100.00;101513.03;5220252;34;33789;-84
2022/10/27 05:12:32;;;;;;;26.75;13.57;;;;;;;11.67;100.00;101518.13;5219389;34;32362;-84
2022/10/27 05:15:35;;;;;;;28.85;14.00;;;;;;;11.72;100.00;101514.94;5219389;34;32087;-84
2022/10/27 05:18:38;;;;;;;26.90;13.48;;;;;;;11.73;100.00;101517.50;5220737;34;34220;-84
2022/10/27 05:21:40;;;;;;;26.08;14.10;;;;;;;11.68;100.00;101511.72;5220612;34;33820;-84
2022/10/27 05:24:43;;;;;;;25.98;14.23;;;;;;;11.72;100.00;101518.47;5219566;34;34041;-84
2022/10/27 05:27:46;;;;;;;27.85;13.88;;;;;;;11.77;100.00;101526.94;5218909;34;34260;-88
2022/10/27 05:30:49;;;;;;;24.73;13.50;;;;;;;11.79;100.00;101529.50;5207221;34;32651;-89
2022/10/27 05:33:52;;;;;;;28.52;14.48;;;;;;;11.80;100.00;101534.72;5222259;34;34100;-89
2022/10/27 05:37:01;;;;;;;25.55;12.98;;;;;;;11.85;100.00;101536.13;5221435;34;32351;-85
2022/10/27 05:40:05;;;;;;;26.02;13.98;;;;;;;11.90;100.00;101540.03;5220231;34;34243;-84
2022/10/27 05:43:09;;;;;;;23.92;13.52;;;;;;;11.94;100.00;101535.22;5219860;34;34571;-84
2022/10/27 05:46:11;;;;;;;30.52;14.38;;;;;;;11.97;100.00;101540.28;5214482;34;32228;-84
2022/10/27 05:49:14;;;;;;;30.00;14.25;;;;;;;11.97;100.00;101551.91;5220563;34;33935;-84
2022/10/27 05:52:16;;;;;;;28.98;14.50;;;;;;;11.94;100.00;101548.69;5219245;34;34389;-84
2022/10/27 05:55:20;;;;;;;26.80;14.05;;;;;;;12.06;100.00;101558.22;5218793;34;32954;-84
2022/10/27 05:58:22;;;;;;;23.92;13.57;;;;;;;12.08;100.00;101553.53;5216228;34;34433;-84
2022/10/27 06:01:25;;;;;;;25.77;13.40;;;;;;;12.06;100.00;101551.97;5206405;34;33497;-84
2022/10/27 06:04:28;;;;;;;30.40;13.68;;;;;;;12.10;100.00;101558.75;5219815;34;33960;-84
2022/10/27 06:07:31;;;;;;;27.33;13.32;;;;;;;12.06;100.00;101558.22;5220824;34;35121;-84
2022/10/27 06:10:33;;;;;;;28.08;14.20;;;;;;;12.10;100.00;101566.84;5227550;34;33972;-84
2022/10/27 06:13:36;;;;;;;34.67;14.52;;;;;;;12.09;100.00;101566.00;5228382;34;34375;-85
2022/10/27 06:16:39;;;;;;;28.90;14.63;;;;;;;12.21;100.00;101566.59;5233189;34;34090;-84
2022/10/27 06:19:41;;;;;;;26.48;13.55;;;;;;;12.24;100.00;101568.97;5220292;34;34688;-84
2022/10/27 06:22:47;;;;;;;26.48;14.23;;;;;;;12.22;100.00;101579.91;5219716;34;33541;-85
2022/10/27 06:25:50;;;;;;;27.60;14.80;;;;;;;12.27;100.00;101584.00;5220240;34;34581;-84
2022/10/27 06:28:53;;;;;;;28.50;14.65;;;;;;;12.30;100.00;101586.37;5220762;34;34631;-84
2022/10/27 06:31:55;;;;;;;31.27;15.20;;;;;;;12.38;100.00;101594.53;5220427;34;32259;-85
2022/10/27 06:34:58;;;;;;;32.10;15.90;;;;;;;12.39;100.00;101590.81;5207810;34;31640;-85
2022/10/27 06:38:00;;;;;;;34.10;16.98;;;;;;;12.44;100.00;101592.03;5214968;34;33847;-84
2022/10/27 06:41:03;;;;;;;28.70;15.48;;;;;;;12.45;100.00;101601.81;5219761;34;33509;-84
2022/10/27 06:44:06;;;;;;;26.23;14.02;;;;;;;12.51;100.00;101591.41;5215177;34;33948;-84
2022/10/27 06:47:09;;;;;;;25.83;13.70;;;;;;;12.50;100.00;101601.34;5200852;34;32148;-85
2022/10/27 06:50:12;;;;;;;24.45;13.73;;;;;;;12.66;100.00;101614.09;5211712;34;32735;-85
2022/10/27 06:53:14;;;;;;;24.85;13.07;;;;;;;12.58;100.00;101608.66;5218096;34;34969;-84
2022/10/27 06:56:18;;;;;;;23.33;13.65;;;;;;;12.63;100.00;101617.97;5214629;34;33303;-83
2022/10/27 06:59:21;;;;;;;23.23;12.93;;;;;;;12.63;100.00;101612.56;5186543;34;226889;-83
2022/10/27 07:02:25;;;;;;;22.42;12.00;;;;;;;12.62;100.00;101615.44;5200517;34;33768;-83
2022/10/27 07:05:28;;;;;;;25.00;12.32;;;;;;;12.55;100.00;101608.97;5201786;34;34178;-85
2022/10/27 07:08:30;;;;;;;21.30;11.38;;;;;;;12.62;100.00;101618.12;5204775;34;33784;-84
2022/10/27 07:11:33;;;;;;;22.95;12.43;;;;;;;12.73;100.00;101625.97;5202761;34;34220;-83
2022/10/27 07:14:35;;;;;;;25.35;12.70;;;;;;;12.77;100.00;101624.62;5207105;34;34456;-83
2022/10/27 07:17:38;;;;;;;20.90;11.82;;;;;;;12.84;100.00;101632.91;5192231;34;33920;-83
2022/10/27 07:20:45;;;;;;;28.85;12.57;;;;;;;12.96;100.00;101636.19;5194072;34;32253;-86
2022/10/27 07:23:47;;;;;;;35.30;12.37;;;;;;;13.05;100.00;101646.03;5188184;34;33752;-85
2022/10/27 07:26:50;;;;;;;21.83;12.18;;;;;;;13.09;100.00;101647.41;5203774;34;34651;-85
2022/10/27 07:29:53;;;;;;;21.45;12.57;;;;;;;13.13;100.00;101646.91;5209316;34;33528;-85
2022/10/27 07:32:58;;;;;;;24.20;11.93;;;;;;;13.11;100.00;101648.09;5200664;34;34496;-84
2022/10/27 07:36:00;;;;;;;22.83;11.38;;;;;;;13.18;100.00;101649.12;5193015;34;33339;-83
2022/10/27 07:39:03;;;;;;;24.02;12.63;;;;;;;13.28;100.00;101659.81;5211662;34;33946;-83
2022/10/27 07:42:06;;;;;;;23.12;12.95;;;;;;;13.41;100.00;101660.22;5221483;34;35509;-83
2022/10/27 07:45:09;;;;;;;26.08;13.80;;;;;;;13.36;100.00;101662.56;5203366;34;34679;-83
2022/10/27 07:48:14;;;;;;;22.08;12.77;;;;;;;13.32;100.00;101672.88;5205735;34;33735;-84
2022/10/27 07:51:16;;;;;;;22.45;11.57;;;;;;;13.09;100.00;101680.69;5201425;34;33803;-88
2022/10/27 07:54:19;;;;;;;22.85;12.57;;;;;;;13.14;100.00;101678.34;5196117;34;33218;-88
2022/10/27 07:57:21;;;;;;;21.27;11.75;;;;;;;13.25;100.00;101673.63;5203621;34;34657;-90
2022/10/27 08:00:25;;;;;;;21.92;12.27;;;;;;;13.26;100.00;101678.09;5203825;34;34073;-84
2022/10/27 08:03:30;;;;;;;23.23;12.18;;;;;;;13.34;100.00;101684.37;5202549;34;31958;-84
2022/10/27 08:06:33;;;;;;;22.67;12.70;;;;;;;13.38;100.00;101695.72;5203605;34;34164;-84
2022/10/27 08:09:36;;;;;;;18.70;10.70;;;;;;;13.48;100.00;101688.28;5205170;34;35950;-84
2022/10/27 08:12:42;;;;;;;22.40;11.52;;;;;;;13.66;100.00;101701.72;5220566;34;34566;-86
2022/10/27 08:15:45;;;;;;;20.40;11.32;;;;;;;13.60;100.00;101707.75;5213668;34;34270;-86
2022/10/27 08:18:48;;;;;;;21.42;10.93;;;;;;;13.69;100.00;101703.22;5203034;34;33481;-86
2022/10/27 08:21:51;;;;;;;20.60;11.57;;;;;;;13.75;100.00;101708.00;5203452;34;34223;-86
2022/10/27 08:24:53;;;;;;;20.98;11.52;;;;;;;13.59;100.00;101714.19;5203340;34;33904;-84
2022/10/27 08:27:57;;;;;;;19.33;10.85;;;;;;;13.65;100.00;101715.41;5202305;34;33793;-85
2022/10/27 08:31:00;;;;;;;27.42;13.70;;;;;;;13.65;100.00;101715.41;5203609;34;33926;-85
2022/10/27 08:34:02;;;;;;;26.05;14.07;;;;;;;13.68;100.00;101715.06;5201476;34;33014;-86
2022/10/27 08:37:05;;;;;;;29.75;15.38;;;;;;;13.77;100.00;101709.50;5202794;34;33860;-84
2022/10/27 08:40:09;;;;;;;27.52;14.05;;;;;;;13.68;100.00;101718.63;5203863;34;34106;-85
2022/10/27 08:43:31;;;;;;;24.92;13.05;;;;;;;13.68;100.00;101713.22;5216266;34;34023;-86
2022/10/27 08:46:43;;;;;;;25.20;13.05;;;;;;;13.81;100.00;101712.75;5220615;34;33991;-85
2022/10/27 08:49:50;;;;;;;22.25;13.00;;;;;;;13.79;100.00;101704.78;5219573;34;33350;-83
2022/10/27 08:52:59;;;;;;;24.30;13.95;;;;;;;13.71;100.00;101710.16;5227320;34;34725;-83
2022/10/27 08:56:10;;;;;;;24.33;12.90;;;;;;;13.76;100.00;101707.81;5225575;34;32128;-83
2022/10/27 08:59:19;;;;;;;24.92;14.23;;;;;;;13.85;100.00;101716.81;5208061;34;33329;-83
2022/10/27 09:02:44;;;;;;;25.92;13.85;;;;;;;13.86;100.00;101712.22;5206032;34;33143;-83
2022/10/27 09:06:10;;;;;;;24.48;13.40;;;;;;;13.89;100.00;101709.19;5220463;34;33668;-83
2022/10/27 09:09:57;;;;;;;25.20;14.10;;;;;;;13.93;100.00;101710.56;5209542;34;32678;-83
2022/10/27 09:13:18;;;;;;;26.67;14.05;;;;;;;14.11;100.00;101707.69;5220364;34;34019;-83
2022/10/27 09:16:42;;;;;;;25.55;14.98;;;;;;;14.18;100.00;101706.84;5224367;34;34230;-83
2022/10/27 09:19:51;;;;;;;30.42;16.67;;;;;;;14.35;100.00;101709.56;5219399;34;32575;-84
2022/10/27 09:22:57;;;;;;;29.55;16.70;;;;;;;14.12;100.00;101714.81;5218768;34;32486;-84
2022/10/27 09:25:59;;;;;;;32.20;18.77;;;;;;;13.95;100.00;101720.22;5220051;34;34667;-84
2022/10/27 09:29:12;;;;;;;31.45;17.35;;;;;;;14.05;100.00;101718.19;5207456;34;33061;-83
2022/10/27 09:32:21;;;;;;;29.20;16.50;;;;;;;14.18;100.00;101727.66;5220072;34;34265;-83
2022/10/27 09:35:29;;;;;;;26.98;15.25;;;;;;;14.20;100.00;101726.50;5218087;34;33508;-83
2022/10/27 09:38:32;;;;;;;28.65;15.38;;;;;;;14.28;100.00;101729.22;5224519;34;33964;-83
2022/10/27 09:41:35;;;;;;;27.35;16.08;;;;;;;14.36;100.00;101724.78;5226872;34;34129;-83
2022/10/27 09:44:38;;;;;;;28.17;16.37;;;;;;;14.40;100.00;101724.28;5227177;34;34757;-84
2022/10/27 09:47:45;;;;;;;28.48;15.77;;;;;;;14.16;100.00;101727.00;5220371;34;34206;-83
2022/10/27 09:51:06;;;;;;;31.52;16.85;;;;;;;14.17;100.00;101728.69;5220712;34;33935;-87
2022/10/27 09:54:28;;;;;;;28.83;15.90;;;;;;;14.20;100.00;101721.06;5207250;34;32652;-84
2022/10/27 09:57:34;;;;;;;25.67;14.87;;;;;;;14.21;100.00;101722.75;5221329;34;33967;-84
2022/10/27 10:00:36;;;;;;;24.52;14.43;;;;;;;14.29;100.00;101724.63;5220546;34;34808;-84
2022/10/27 10:03:51;;;;;;;24.10;14.65;;;;;;;14.32;100.00;101718.03;5219309;34;34059;-83
2022/10/27 10:07:00;;;;;;;27.75;16.55;;;;;;;14.50;100.00;101724.09;5219483;34;34133;-84
2022/10/27 10:10:21;;;;;;;26.85;15.30;;;;;;;14.45;100.00;101730.06;5219698;34;34285;-83
2022/10/27 10:13:32;;;;;;;27.25;15.48;;;;;;;14.27;100.00;101727.53;5218919;34;34583;-83
2022/10/27 10:16:35;;;;;;;24.48;14.60;;;;;;;14.44;100.00;101730.22;5220580;34;33780;-83
2022/10/27 10:19:41;;;;;;;26.98;16.23;;;;;;;14.56;100.00;101737.00;5220801;34;34037;-83
2022/10/27 10:22:48;;;;;;;25.90;15.40;;;;;;;14.45;100.00;101729.19;5228256;34;34097;-83
2022/10/27 10:25:54;;;;;;;30.15;17.52;;;;;;;14.24;100.00;101732.41;5236850;34;33933;-83
2022/10/27 10:29:14;;;;;;;26.45;15.15;;;;;;;14.24;100.00;101721.56;5219706;34;34639;-84
2022/10/27 10:32:26;;;;;;;28.98;15.38;;;;;;;14.36;100.00;101733.78;5206570;34;32907;-84
2022/10/27 10:35:41;;;;;;;28.33;16.27;;;;;;;14.37;100.00;101731.91;5220573;34;34017;-83
2022/10/27 10:38:50;;;;;;;28.05;15.95;;;;;;;14.38;100.00;101728.19;5218748;34;34999;-88
2022/10/27 10:42:05;;;;;;;;;;;;;;;14.34;100.00;101732.25;5218675;34;34520;-84
2022/10/27 10:45:21;;;;;;;28.83;15.00;;;;;;;14.34;100.00;101732.25;5220148;34;34560;-84
2022/10/27 10:48:27;;;;;;;29.17;16.50;;;;;;;14.52;100.00;101725.66;5235127;34;34187;-84
2022/10/27 10:51:33;;;;;;;28.02;15.82;;;;;;;14.45;100.00;101729.19;5230913;34;34270;-84
2022/10/27 10:54:40;;;;;;;46.88;16.25;;;;;;;14.51;100.00;101726.69;5222029;34;32288;-83
2022/10/27 10:57:47;;;;;;;27.30;14.80;;;;;;;14.67;100.00;101723.09;5219131;34;34490;-84
2022/10/27 11:00:56;;;;;;;24.77;14.45;;;;;;;14.74;100.00;101718.72;5219110;34;34253;-84
2022/10/27 11:03:59;;;;;;;24.37;13.48;;;;;;;14.78;100.00;101712.94;5219044;34;33669;-84
2022/10/27 11:07:05;;;;;;;24.20;13.48;;;;;;;14.79;100.00;101715.47;5221298;34;34022;-83
2022/10/27 11:10:17;;;;;;;27.17;14.43;;;;;;;14.80;100.00;101713.59;5219341;34;33937;-83
2022/10/27 11:13:24;;;;;;;23.17;13.75;;;;;;;14.86;100.00;101716.47;5206970;34;33177;-83
2022/10/27 11:16:31;;;;;;;23.98;14.10;;;;;;;14.86;100.00;101721.03;5219510;34;33954;-84
2022/10/27 11:19:39;;;;;;;24.48;14.02;;;;;;;14.92;100.00;101712.22;5220178;34;33987;-84
2022/10/27 11:22:42;;;;;;;25.10;14.75;;;;;;;14.81;100.00;101712.59;5219556;34;33966;-83
2022/10/27 11:25:46;;;;;;;22.77;14.13;;;;;;;15.00;100.00;101714.06;5219663;34;33287;-84
2022/10/27 11:29:12;;;;;;;24.52;14.13;;;;;;;15.13;100.00;101711.66;5221974;34;34574;-84
2022/10/27 11:32:45;;;;;;;22.48;13.40;;;;;;;15.15;100.00;101713.16;5216273;34;32878;-84
2022/10/27 11:36:28;;;;;;;28.67;14.52;;;;;;;15.10;100.00;101714.72;5221443;34;34014;-84
2022/10/27 11:40:00;;;;;;;25.42;14.63;;;;;;;15.25;100.00;101712.13;5185466;34;33393;-84
2022/10/27 11:43:27;;;;;;;25.73;14.80;;;;;;;15.35;100.00;101712.72;5191101;34;32194;-84
2022/10/27 11:47:01;;;;;;;26.10;15.20;;;;;;;15.63;100.00;101705.81;5216048;34;32402;-84
2022/10/27 11:50:20;;;;;;;27.75;15.57;;;;;;;15.59;100.00;101704.47;5212021;34;32890;-84
2022/10/27 11:53:23;;;;;;;26.27;15.97;;;;;;;15.44;100.00;101700.81;5208013;34;32591;-88
2022/10/27 11:56:34;;;;;;;29.00;15.50;;;;;;;15.14;100.00;101695.19;5221375;34;34157;-88
2022/10/27 11:59:37;;;;;;;29.30;16.55;;;;;;;15.34;100.00;101697.47;5220592;34;32569;-84
2022/10/27 12:03:11;;;;;;;34.25;18.98;;;;;;;15.25;100.00;101699.38;5221529;34;34615;-84
2022/10/27 12:06:30;;;;;;;32.92;17.80;;;;;;;15.46;100.00;101698.78;5209061;34;33719;-84
2022/10/27 12:09:51;;;;;;;33.72;18.33;;;;;;;15.36;100.00;101690.03;5208250;34;32644;-84
2022/10/27 12:13:02;;;;;;;32.28;17.85;;;;;;;15.37;100.00;101681.69;5215529;34;33784;-84
2022/10/27 12:16:29;;;;;;;29.83;18.35;;;;;;;15.40;100.00;101675.06;5221660;34;34743;-83
2022/10/27 12:19:38;;;;;;;33.53;17.75;;;;;;;15.17;100.00;101675.84;5221718;34;33844;-84
2022/10/27 12:23:06;;;;;;;31.87;17.77;;;;;;;15.44;100.00;101679.09;5221392;34;33918;-84
2022/10/27 12:26:16;;;;;;;31.83;16.98;;;;;;;15.62;100.00;101676.12;5221519;34;33559;-83
2022/10/27 12:29:22;;;;;;;31.50;17.42;;;;;;;15.78;100.00;101672.50;5222634;34;34101;-88
2022/10/27 12:32:28;;;;;;;30.10;16.52;;;;;;;15.81;100.00;101666.69;5221720;34;33985;-88
2022/10/27 12:35:52;;;;;;;27.98;16.45;;;;;;;15.84;100.00;101671.75;5212432;34;33875;-84
2022/10/27 12:39:41;;;;;;;30.37;16.73;;;;;;;15.97;100.00;101663.00;5228659;34;35001;-84
2022/10/27 12:43:00;;;;;;;27.60;16.00;;;;;;;15.51;100.00;101663.81;5184976;34;34768;-84
2022/10/27 12:46:14;;;;;;;;;;;;;;;15.69;100.00;101668.97;5174168;34;33700;-84
2022/10/27 12:49:24;;;;;;;29.33;16.52;;;;;;;15.77;100.00;101668.94;5219862;34;33773;-84
2022/10/27 12:52:30;;;;;;;27.67;16.02;;;;;;;15.71;100.00;101671.53;5207700;34;32583;-84
2022/10/27 12:55:47;;;;;;;26.98;15.02;;;;;;;15.39;100.00;101665.25;5207680;34;32428;-84
2022/10/27 12:59:01;;;;;;;27.37;15.45;;;;;;;15.69;100.00;101670.87;5219805;34;33092;-83
2022/10/27 13:02:10;;;;;;;31.62;16.62;;;;;;;15.77;100.00;101671.66;5221180;34;33826;-84
2022/10/27 13:05:13;;;;;;;;;;;;;;;15.69;100.00;101668.16;5221172;34;34038;-88
2022/10/27 13:08:24;;;;;;;31.23;18.20;;;;;;;15.61;100.00;101671.72;5220615;34;34521;-88
2022/10/27 13:11:39;;;;;;;30.73;17.33;;;;;;;15.35;100.00;101672.03;5207821;34;32285;-84
2022/10/27 13:15:32;;;;;;;30.77;17.35;;;;;;;15.25;100.00;101664.13;5207857;34;32694;-84
2022/10/27 13:18:54;;;;;;;29.50;17.23;;;;;;;15.27;100.00;101662.09;5173206;34;33982;-83
2022/10/27 13:22:06;;;;;;;30.75;17.33;;;;;;;15.33;100.00;101663.25;5173970;34;33666;-84
2022/10/27 13:25:19;;;;;;;27.62;16.08;;;;;;;15.32;100.00;101661.53;5220464;34;34770;-84
2022/10/27 13:28:36;;;;;;;29.20;16.92;;;;;;;15.31;100.00;101657.97;5212575;34;32880;-83
2022/10/27 13:31:39;;;;;;;31.23;17.80;;;;;;;15.39;100.00;101671.50;5212624;34;32242;-84
2022/10/27 13:35:02;;;;;;;31.87;19.08;;;;;;;15.30;100.00;101660.87;5223692;34;34296;-84
2022/10/27 13:38:17;;;;;;;29.23;17.62;;;;;;;15.13;100.00;101663.66;5215445;34;32471;-88
2022/10/27 13:41:57;;;;;;;33.45;17.77;;;;;;;15.19;100.00;101664.81;5231897;34;33816;-84
2022/10/27 13:45:25;;;;;;;27.58;15.98;;;;;;;15.17;100.00;101670.41;5228930;34;34151;-84
2022/10/27 13:48:32;;;;;;;26.97;15.93;;;;;;;15.13;100.00;101674.50;5220932;34;33698;-84
2022/10/27 13:51:40;;;;;;;29.37;15.63;;;;;;;15.17;100.00;101672.28;5220753;34;33834;-84
2022/10/27 13:55:30;;;;;;;26.37;15.43;;;;;;;14.96;100.00;101675.59;5220383;34;34030;-84
2022/10/27 13:58:54;;;;;;;27.37;16.27;;;;;;;15.02;100.00;101672.19;5220115;34;34342;-84
2022/10/27 14:02:07;;;;;;;27.98;15.98;;;;;;;14.97;100.00;101682.69;5220262;34;34738;-88
2022/10/27 14:05:26;;;;;;;26.23;15.35;;;;;;;14.86;100.00;101675.81;5220194;34;34664;-85
2022/10/27 14:08:31;;;;;;;24.40;14.25;;;;;;;14.81;100.00;101680.91;5207896;34;33475;-84
2022/10/27 14:11:34;;;;;;;24.65;13.43;;;;;;;14.79;100.00;101676.66;5220825;34;34225;-84
2022/10/27 14:14:39;;;;;;;25.17;13.73;;;;;;;14.77;100.00;101679.56;5221362;34;33763;-84
2022/10/27 14:17:43;;;;;;;25.30;14.15;;;;;;;14.74;100.00;101674.47;5208319;34;32682;-84
2022/10/27 14:20:46;;;;;;;27.10;13.98;;;;;;;14.49;100.00;101679.91;5220986;34;34414;-84
2022/10/27 14:23:49;;;;;;;21.73;13.00;;;;;;;14.44;100.00;101681.44;5221248;34;34381;-84
2022/10/27 14:27:02;;;;;;;22.40;13.43;;;;;;;14.41;100.00;101676.38;5222141;34;34643;-84
2022/10/27 14:30:14;;;;;;;26.12;14.05;;;;;;;14.33;100.00;101688.03;5226992;34;34340;-84
2022/10/27 14:33:22;;;;;;;25.52;14.73;;;;;;;14.24;100.00;101683.66;5231259;34;34359;-85
2022/10/27 14:36:32;;;;;;;22.87;13.13;;;;;;;14.17;100.00;101683.50;5220378;34;34296;-84
2022/10/27 14:39:36;;;;;;;20.92;12.07;;;;;;;14.22;100.00;101678.41;5221474;34;34748;-84
2022/10/27 14:42:39;;;;;;;22.17;12.40;;;;;;;14.28;100.00;101682.31;5222238;34;34474;-84
2022/10/27 14:45:42;;;;;;;21.60;12.05;;;;;;;14.19;100.00;101676.06;5220417;34;32509;-84
2022/10/27 14:48:52;;;;;;;22.73;14.15;;;;;;;14.24;100.00;101683.66;5220253;34;34519;-83
2022/10/27 14:51:57;;;;;;;21.00;13.35;;;;;;;14.15;100.00;101685.50;5229273;34;32629;-84
2022/10/27 14:54:59;;;;;;;21.67;13.15;;;;;;;14.14;100.00;101681.13;5220466;34;34606;-84
2022/10/27 14:58:04;;;;;;;25.12;13.82;;;;;;;14.16;100.00;101689.94;5220279;34;33824;-84
2022/10/27 15:01:18;;;;;;;25.60;13.25;;;;;;;14.17;100.00;101691.63;5219365;34;34514;-84
2022/10/27 15:04:32;;;;;;;22.27;11.95;;;;;;;14.10;100.00;101693.31;5219706;34;34495;-84
2022/10/27 15:07:35;;;;;;;22.65;12.50;;;;;;;13.78;100.00;101694.97;5218951;34;32511;-84
2022/10/27 15:10:42;;;;;;;23.83;13.57;;;;;;;13.75;100.00;101692.59;5220393;34;34014;-85
2022/10/27 15:13:46;;;;;;;23.48;13.30;;;;;;;13.76;100.00;101691.56;5220352;34;34098;-85
2022/10/27 15:16:51;;;;;;;24.33;13.55;;;;;;;13.71;100.00;101693.94;5220014;34;34171;-84
2022/10/27 15:19:59;;;;;;;22.67;11.95;;;;;;;13.83;100.00;101692.62;5220101;34;33449;-84
2022/10/27 15:23:02;;;;;;;22.52;12.23;;;;;;;13.82;100.00;101690.91;5220177;34;33953;-84
2022/10/27 15:26:09;;;;;;;23.08;11.80;;;;;;;13.66;100.00;101692.72;5219975;34;34522;-84
2022/10/27 15:29:16;;;;;;;23.42;12.30;;;;;;;13.66;100.00;101687.31;5220278;34;34175;-86
2022/10/27 15:32:31;;;;;;;19.75;10.93;;;;;;;13.55;100.00;101683.09;5220292;34;33946;-84
2022/10/27 15:35:34;;;;;;;19.55;10.40;;;;;;;13.67;100.00;101689.88;5218815;34;34046;-84
2022/10/27 15:38:37;;;;;;;20.52;11.68;;;;;;;13.60;100.00;101687.00;5219309;34;33625;-84
2022/10/27 15:41:49;;;;;;;20.77;11.35;;;;;;;13.51;100.00;101693.41;5219199;34;33557;-84
2022/10/27 15:45:13;;;;;;;18.77;11.18;;;;;;;13.40;100.00;101693.69;5207065;34;32053;-84
2022/10/27 15:48:29;;;;;;;18.40;10.68;;;;;;;13.47;100.00;101692.00;5219992;34;34751;-84
2022/10/27 15:51:42;;;;;;;18.65;11.15;;;;;;;13.48;100.00;101693.69;5219975;34;33990;-84
2022/10/27 15:54:50;;;;;;;22.17;11.35;;;;;;;13.49;100.00;101700.81;5219712;34;34705;-84
2022/10/27 15:57:53;;;;;;;20.93;10.87;;;;;;;13.53;100.00;101704.03;5218249;34;33113;-84
2022/10/27 16:01:08;;;;;;;19.48;11.40;;;;;;;13.48;100.00;101698.28;5218240;34;32796;-84
